Time;durP1;ratioP1;P1;durP2;ratioP2;P2;SDS_P1;SDS_P2;PMS_P1;PMS_P2;Temp;Humidity;BMP_temperature;BMP_pressure;BME280_temperature;BME280_humidity;BME280_pressure;Samples;Min_cycle;Max_cycle;Signal;HPM_P1;HPM_P2
2022/03/12 00:00:31;;;;;;;8.98;5.30;;;2.30;37.50;;;0.56;36.71;96194.28;4982313;28;20035;-68
2022/03/12 00:02:57;;;;;;;8.50;5.35;;;2.30;37.50;;;0.56;36.67;96201.22;4962162;28;20031;-68
2022/03/12 00:05:26;;;;;;;8.77;4.97;;;2.30;37.50;;;0.59;36.79;96209.56;4960223;28;20074;-69
2022/03/12 00:07:52;;;;;;;9.48;4.95;;;2.40;37.50;;;0.59;37.03;96206.97;4947826;28;20035;-70
2022/03/12 00:10:21;;;;;;;8.55;5.05;;;2.40;37.40;;;0.61;36.88;96217.19;4948533;28;20038;-69
2022/03/12 00:12:50;;;;;;;10.80;5.15;;;2.40;37.40;;;0.61;37.01;96218.03;4933169;28;20069;-69
2022/03/12 00:15:16;;;;;;;7.82;5.00;;;2.40;37.60;;;0.62;37.06;96229.19;4959341;28;20045;-69
2022/03/12 00:17:45;;;;;;;10.20;5.20;;;2.40;37.60;;;0.58;36.68;96231.22;4928636;28;20035;-68
2022/03/12 00:20:16;;;;;;;7.97;5.00;;;2.30;37.60;;;0.55;37.73;96225.47;4947694;28;20043;-69
2022/03/12 00:22:45;;;;;;;10.77;5.45;;;2.30;37.60;;;0.51;37.30;96230.09;4965592;28;20122;-69
2022/03/12 00:25:13;;;;;;;8.80;5.10;;;2.20;37.80;;;0.50;37.32;96233.63;4973394;28;20077;-69
2022/03/12 00:27:39;;;;;;;9.07;5.22;;;2.20;37.80;;;0.46;37.00;96246.94;4931009;28;20138;-68
2022/03/12 00:30:06;;;;;;;10.25;5.22;;;2.20;37.90;;;0.46;37.53;96239.16;4952179;28;20559;-69
2022/03/12 00:32:36;;;;;;;9.75;5.30;;;2.20;38.10;;;0.44;37.03;96235.84;4939164;28;20035;-69
2022/03/12 00:35:05;;;;;;;8.98;4.70;;;2.20;38.20;;;0.42;37.88;96237.75;4964799;28;20415;-69
2022/03/12 00:37:30;;;;;;;10.73;5.57;;;2.20;38.20;;;0.40;37.53;96226.69;4959660;28;20136;-69
2022/03/12 00:39:57;;;;;;;12.98;5.10;;;2.10;38.10;;;0.36;37.70;96226.13;4941899;28;20102;-69
2022/03/12 00:42:23;;;;;;;10.30;5.68;;;2.10;38.10;;;0.36;37.29;96233.06;4919922;28;20584;-69
2022/03/12 00:44:48;;;;;;;11.63;5.28;;;2.10;38.30;;;0.34;37.32;96230.59;4970810;28;20043;-69
2022/03/12 00:47:14;;;;;;;8.50;4.78;;;2.10;38.10;;;0.32;37.42;96235.09;4942849;28;20062;-68
2022/03/12 00:49:40;;;;;;;8.98;4.68;;;2.10;38.30;;;0.31;37.48;96230.84;4965592;28;20498;-68
2022/03/12 00:52:06;;;;;;;10.45;5.32;;;2.10;38.20;;;0.27;37.60;96229.47;4950192;28;20031;-68
2022/03/12 00:54:32;;;;;;;8.00;4.95;;;2.00;38.10;;;0.25;37.83;96239.13;4973287;28;20114;-69
2022/03/12 00:56:58;;;;;;;12.00;5.55;;;2.00;38.20;;;0.23;37.91;96235.81;4953428;28;20439;-69
2022/03/12 00:59:24;;;;;;;10.82;5.47;;;2.00;38.50;;;0.22;37.59;96247.09;4966654;28;20511;-69
2022/03/12 01:01:50;;;;;;;10.60;5.22;;;2.00;38.30;;;0.21;37.81;96245.44;4946177;29;20487;-69
2022/03/12 01:04:16;;;;;;;11.85;5.43;;;2.00;38.70;;;0.20;37.96;96246.41;4980500;28;20035;-69
2022/03/12 01:06:42;;;;;;;11.23;5.55;;;2.00;38.70;;;0.18;37.95;96248.28;4964627;28;20058;-70
2022/03/12 01:09:10;;;;;;;8.45;5.20;;;2.00;38.90;;;0.15;37.68;96240.78;4946432;28;20457;-68
2022/03/12 01:11:38;;;;;;;9.45;4.95;;;1.90;38.90;;;0.14;37.95;96236.53;4964990;28;20043;-68
2022/03/12 01:14:08;;;;;;;11.55;5.60;;;2.00;39.00;;;0.13;38.57;96240.06;4926466;28;20039;-70
2022/03/12 01:16:34;;;;;;;8.32;4.75;;;1.90;39.10;;;0.12;38.35;96241.84;4976216;28;20577;-69
2022/03/12 01:18:59;;;;;;;9.02;5.20;;;1.90;38.80;;;0.12;37.97;96243.59;4953989;28;20047;-69
2022/03/12 01:21:25;;;;;;;8.43;5.22;;;1.90;38.90;;;0.10;37.80;96242.91;4956274;28;20134;-68
2022/03/12 01:23:51;;;;;;;8.57;5.03;;;1.90;39.10;;;0.09;38.21;96241.25;4941847;28;20039;-69
2022/03/12 01:26:20;;;;;;;7.05;5.10;;;1.80;39.50;;;0.08;38.35;96244.78;4924334;28;20105;-68
2022/03/12 01:28:46;;;;;;;8.60;5.40;;;1.80;39.40;;;0.05;38.26;96242.44;4958990;28;20031;-68
2022/03/12 01:31:12;;;;;;;9.60;5.13;;;1.80;39.40;;;0.03;38.65;96241.75;4947729;28;20514;-69
2022/03/12 01:33:38;;;;;;;7.72;5.03;;;1.80;39.50;;;0.04;38.35;96235.63;4969208;28;20033;-69
2022/03/12 01:36:05;;;;;;;8.57;5.60;;;1.90;39.50;;;0.03;38.81;96246.94;4966517;28;20122;-68
2022/03/12 01:38:36;;;;;;;11.50;5.20;;;1.80;39.50;;;-0.03;38.90;96241.28;4974434;28;20398;-68
2022/03/12 01:41:03;;;;;;;12.40;5.90;;;1.70;39.50;;;-0.08;38.82;96240.81;4949204;28;20066;-70
2022/03/12 01:43:32;;;;;;;11.48;4.70;;;1.60;39.70;;;-0.10;39.19;96234.94;4926617;28;20039;-69
2022/03/12 01:46:01;;;;;;;10.48;5.78;;;1.70;40.10;;;-0.14;39.11;96233.53;4941962;28;20054;-70
2022/03/12 01:48:31;;;;;;;9.13;5.68;;;1.60;39.80;;;-0.16;39.21;96232.03;4959824;28;20047;-70
2022/03/12 01:50:57;;;;;;;10.10;5.22;;;1.60;39.90;;;-0.20;38.63;96226.28;4947623;28;20037;-69
2022/03/12 01:53:26;;;;;;;8.02;5.13;;;1.60;39.90;;;-0.20;39.05;96238.38;4958982;28;20039;-69
2022/03/12 01:55:52;;;;;;;9.80;5.30;;;1.60;40.10;;;-0.21;39.09;96227.22;4957456;28;20031;-69
2022/03/12 01:58:18;;;;;;;8.27;5.25;;;1.60;40.20;;;-0.24;39.08;96227.44;4958106;28;20451;-69
2022/03/12 02:00:46;;;;;;;11.43;5.90;;;1.60;40.40;;;-0.28;39.43;96217.47;4932736;28;20039;-69
2022/03/12 02:03:14;;;;;;;9.48;5.47;;;1.50;40.50;;;-0.29;39.30;96224.38;4932640;28;20047;-70
2022/03/12 02:05:40;;;;;;;10.60;5.10;;;1.50;40.60;;;-0.30;39.37;96225.34;4941778;28;20050;-70
2022/03/12 02:08:06;;;;;;;9.77;5.28;;;1.50;40.40;;;-0.31;39.27;96226.28;4957365;28;20119;-69
2022/03/12 02:10:32;;;;;;;10.45;5.50;;;1.50;40.50;;;-0.34;39.28;96239.44;4960964;28;20055;-70
2022/03/12 02:12:58;;;;;;;10.45;5.78;;;1.50;40.60;;;-0.35;39.60;96237.78;4932835;28;20049;-69
2022/03/12 02:15:24;;;;;;;9.60;5.68;;;1.40;40.30;;;-0.36;39.46;96236.16;4947234;28;20038;-69
2022/03/12 02:17:51;;;;;;;9.88;5.30;;;1.50;40.30;;;-0.37;39.84;96224.19;4965250;28;20143;-69
2022/03/12 02:20:18;;;;;;;8.85;5.25;;;1.50;40.40;;;-0.38;39.78;96214.78;4959221;28;20042;-69
2022/03/12 02:22:45;;;;;;;11.30;4.97;;;1.50;40.30;;;-0.38;39.57;96212.19;4960742;28;20106;-68
2022/03/12 02:25:12;;;;;;;8.68;5.00;;;1.50;40.40;;;-0.39;39.51;96220.88;4948883;28;20046;-68
2022/03/12 02:27:38;;;;;;;7.43;4.70;;;1.50;40.10;;;-0.41;39.59;96222.78;4977901;28;20113;-69
2022/03/12 02:30:07;;;;;;;8.32;5.07;;;1.40;40.30;;;-0.47;39.95;96223.22;4947479;28;20760;-70
2022/03/12 02:32:33;;;;;;;9.68;5.13;;;1.40;40.50;;;-0.48;39.43;96237.09;4951245;28;20042;-70
2022/03/12 02:34:59;;;;;;;11.80;4.90;;;1.40;40.30;;;-0.48;39.96;96237.09;4961011;28;20035;-69
2022/03/12 02:37:30;;;;;;;9.63;5.20;;;1.40;40.50;;;-0.49;39.65;96232.84;4953212;28;20090;-69
2022/03/12 02:40:00;;;;;;;7.50;5.03;;;1.40;40.70;;;-0.49;40.50;96231.09;4941653;28;20130;-68
2022/03/12 02:42:28;;;;;;;7.25;5.03;;;1.40;40.90;;;-0.53;40.03;96234.03;4959222;28;20118;-69
2022/03/12 02:44:54;;;;;;;10.70;5.50;;;1.40;40.80;;;-0.52;39.72;96236.50;4949684;28;20084;-69
2022/03/12 02:47:22;;;;;;;9.68;5.97;;;1.30;40.80;;;-0.50;40.11;96238.97;4942968;28;20043;-70
2022/03/12 02:49:51;;;;;;;7.38;5.18;;;1.30;40.90;;;-0.52;40.20;96241.66;4957860;28;20065;-68
2022/03/12 02:52:18;;;;;;;8.40;4.93;;;1.30;40.80;;;-0.54;39.83;96235.78;4951656;28;20113;-68
2022/03/12 02:54:44;;;;;;;8.65;5.32;;;1.30;40.70;;;-0.54;40.19;96240.16;4966011;28;20499;-69
2022/03/12 02:57:10;;;;;;;8.70;5.32;;;1.30;40.90;;;-0.57;40.10;96232.63;4979699;28;20035;-68
2022/03/12 02:59:38;;;;;;;9.77;5.72;;;1.30;41.00;;;-0.57;40.40;96236.03;4956826;28;20039;-69
2022/03/12 03:02:07;;;;;;;11.45;5.45;;;1.30;41.10;;;-0.59;40.86;96243.09;4956834;28;20038;-68
2022/03/12 03:04:40;;;;;;;8.70;5.30;;;1.20;41.20;;;-0.60;40.56;96248.38;4959709;28;20038;-69
2022/03/12 03:07:08;;;;;;;9.90;5.57;;;1.20;41.50;;;-0.61;40.72;96247.56;4949213;28;20035;-69
2022/03/12 03:09:33;;;;;;;9.48;5.65;;;1.20;42.00;;;-0.64;40.95;96253.78;4966083;28;20402;-68
2022/03/12 03:12:03;;;;;;;10.15;5.53;;;1.20;41.90;;;-0.66;41.12;96255.66;4950434;28;20050;-68
2022/03/12 03:14:29;;;;;;;8.38;5.15;;;1.20;42.10;;;-0.71;40.59;96260.31;4967172;28;20526;-70
2022/03/12 03:16:59;;;;;;;11.23;5.80;;;1.10;42.30;;;-0.71;41.13;96257.75;4972675;28;20035;-69
2022/03/12 03:19:26;;;;;;;8.07;5.38;;;1.10;42.40;;;-0.73;40.80;96257.03;4971567;28;20569;-70
2022/03/12 03:21:56;;;;;;;14.50;5.80;;;1.10;42.10;;;-0.75;41.74;96251.16;4971713;28;20035;-69
2022/03/12 03:24:22;;;;;;;8.63;5.47;;;1.10;42.10;;;-0.79;41.13;96254.09;4972040;28;20049;-69
2022/03/12 03:26:49;;;;;;;9.20;5.45;;;1.10;42.40;;;-0.81;41.07;96249.06;4956747;28;20027;-70
2022/03/12 03:29:15;;;;;;;9.48;5.25;;;1.00;42.30;;;-0.84;41.21;96245.88;4989805;28;20035;-69
2022/03/12 03:31:40;;;;;;;11.82;5.88;;;1.00;42.40;;;-0.85;41.24;96250.22;4952610;28;20047;-68
2022/03/12 03:34:06;;;;;;;10.50;5.25;;;1.00;42.40;;;-0.85;41.12;96250.22;4964083;28;20045;-70
2022/03/12 03:36:32;;;;;;;10.45;5.70;;;1.00;42.20;;;-0.88;41.52;96245.28;4955708;28;20410;-68
2022/03/12 03:38:58;;;;;;;8.20;5.05;;;1.00;42.50;;;-0.91;41.17;96240.34;4964232;28;20053;-68
2022/03/12 03:41:24;;;;;;;9.02;5.55;;;0.90;42.50;;;-0.93;41.41;96242.22;4982548;28;20549;-69
2022/03/12 03:43:49;;;;;;;8.40;5.20;;;0.90;42.40;;;-0.97;41.30;96245.97;4961276;28;20046;-69
2022/03/12 03:46:20;;;;;;;8.65;5.22;;;0.90;42.10;;;-0.96;41.63;96250.19;4941864;28;20081;-69
2022/03/12 03:48:51;;;;;;;9.25;5.53;;;1.00;42.20;;;-0.99;41.83;96243.50;4949958;28;20046;-68
2022/03/12 03:51:18;;;;;;;8.68;5.30;;;0.90;41.90;;;-0.96;41.80;96257.94;4966913;28;20132;-68
2022/03/12 03:53:44;;;;;;;8.70;5.60;;;0.90;42.30;;;-0.97;41.56;96248.53;4960626;28;20090;-68
2022/03/12 03:56:10;;;;;;;11.63;5.93;;;0.90;42.10;;;-0.98;41.70;96252.88;4960852;28;20034;-69
2022/03/12 03:58:36;;;;;;;9.82;5.85;;;0.90;42.30;;;-0.99;41.31;96247.84;4971135;28;20087;-69
2022/03/12 04:01:06;;;;;;;9.73;5.57;;;0.90;42.30;;;-0.98;41.55;96252.06;4961376;28;20031;-69
2022/03/12 04:03:32;;;;;;;8.57;5.22;;;0.90;42.70;;;-0.97;41.86;96245.97;4965024;28;20035;-70
2022/03/12 04:05:59;;;;;;;9.90;5.90;;;0.90;42.60;;;-0.96;41.76;96255.34;4944677;28;20078;-69
2022/03/12 04:08:24;;;;;;;10.13;5.10;;;1.00;42.60;;;-0.96;41.56;96255.34;4942909;28;20081;-69
2022/03/12 04:10:50;;;;;;;9.98;5.60;;;0.90;42.50;;;-0.97;41.95;96235.63;4964122;28;20112;-70
2022/03/12 04:13:18;;;;;;;8.85;5.43;;;1.00;42.40;;;-0.96;41.96;96243.28;4968858;28;20046;-70
2022/03/12 04:15:45;;;;;;;11.55;5.75;;;1.00;42.50;;;-0.97;41.66;96246.78;4932496;28;20062;-69
2022/03/12 04:18:11;;;;;;;11.23;5.70;;;1.00;42.30;;;-0.96;41.97;96247.59;4949163;28;20035;-70
2022/03/12 04:20:38;;;;;;;8.25;5.63;;;1.00;42.80;;;-0.96;42.12;96242.44;4962086;28;20180;-69
2022/03/12 04:23:04;;;;;;;9.68;5.45;;;0.90;42.60;;;-0.98;42.18;96247.72;4957407;28;20031;-70
2022/03/12 04:25:32;;;;;;;9.25;5.70;;;1.00;42.40;;;-0.99;41.94;96253.00;4980461;28;20118;-71
2022/03/12 04:27:59;;;;;;;8.80;5.47;;;0.90;42.50;;;-1.01;42.07;96254.88;4958953;28;20051;-70
2022/03/12 04:30:25;;;;;;;9.95;5.40;;;0.90;42.60;;;-1.04;41.99;96247.38;4970374;28;20117;-73
2022/03/12 04:32:51;;;;;;;10.10;6.15;;;0.90;42.50;;;-1.03;42.11;96246.44;4977294;28;20035;-70
2022/03/12 04:35:18;;;;;;;10.15;5.95;;;1.00;42.50;;;-1.02;42.04;96248.06;4928488;28;20050;-72
2022/03/12 04:37:43;;;;;;;8.40;5.30;;;0.90;42.80;;;-1.03;42.00;96246.44;4948721;28;20086;-73
2022/03/12 04:40:14;;;;;;;8.23;5.25;;;0.90;42.90;;;-1.04;42.67;96248.19;4966965;28;20039;-75
2022/03/12 04:42:44;;;;;;;9.40;5.30;;;0.90;43.10;;;-1.04;42.28;96244.78;4968110;28;20068;-76
2022/03/12 04:45:17;;;;;;;10.00;5.57;;;0.90;43.30;;;-1.04;43.36;96255.13;4965800;28;20490;-70
2022/03/12 04:47:44;;;;;;;8.52;4.90;;;0.90;43.00;;;-1.04;42.27;96249.94;4946741;28;20345;-70
2022/03/12 04:50:12;;;;;;;9.20;5.72;;;0.80;43.00;;;-1.06;42.68;96259.56;4947633;28;20039;-68
2022/03/12 04:52:38;;;;;;;12.93;7.63;;;0.90;43.30;;;-1.07;42.55;96257.94;4951766;28;20028;-68
2022/03/12 04:55:09;;;;;;;36.28;20.60;;;0.80;43.20;;;-1.05;43.90;96274.13;4963381;28;20062;-68
2022/03/12 04:57:35;;;;;;;30.83;18.40;;;0.90;44.60;;;-1.04;43.23;96265.44;4969743;28;20177;-69
2022/03/12 05:00:17;;;;;;;17.98;11.30;;;1.00;45.00;;;-1.04;45.14;96270.59;4969378;28;20167;-68
2022/03/12 05:02:45;;;;;;;13.30;8.20;;;1.00;44.60;;;-1.04;43.32;96268.03;4969601;28;20116;-68
2022/03/12 05:05:12;;;;;;;15.38;8.35;;;1.00;44.70;;;-1.03;43.13;96277.41;4969234;28;20093;-68
2022/03/12 05:07:43;;;;;;;13.02;8.10;;;1.00;44.50;;;-1.04;43.34;96280.94;4953164;28;20030;-69
2022/03/12 05:10:10;;;;;;;;;;;1.00;44.00;;;-1.06;45.37;96282.81;4957486;28;20093;-69
2022/03/12 05:12:36;;;;;;;10.05;5.50;;;1.00;43.80;;;-1.06;43.33;96280.22;4966522;28;20321;-69
2022/03/12 05:15:04;;;;;;;12.02;6.43;;;0.90;44.10;;;-1.08;43.04;96284.69;4981686;28;20031;-69
2022/03/12 05:17:32;;;;;;;10.80;5.32;;;0.90;44.20;;;-1.09;43.29;96294.19;4984237;28;20035;-69
2022/03/12 05:19:58;;;;;;;10.27;6.43;;;0.90;44.10;;;-1.10;43.04;96279.63;4983927;28;20657;-69
2022/03/12 05:22:23;;;;;;;8.77;5.40;;;0.90;44.20;;;-1.09;43.54;96285.63;4951436;28;20059;-66
2022/03/12 05:24:49;;;;;;;9.82;5.70;;;0.90;44.40;;;-1.12;43.31;96283.25;4950944;28;20066;-68
2022/03/12 05:27:17;;;;;;;15.73;9.30;;;0.80;44.30;;;-1.18;43.87;96279.34;4961761;28;20054;-68
2022/03/12 05:29:46;;;;;;;23.52;14.48;;;0.80;45.10;;;-1.21;43.69;96289.91;4958860;28;20502;-69
2022/03/12 05:32:12;;;;;;;15.88;9.40;;;0.80;45.70;;;-1.20;43.88;96285.56;4983837;28;20364;-70
2022/03/12 05:34:39;;;;;;;20.88;10.80;;;0.80;44.90;;;-1.21;44.07;96294.25;4959940;28;20126;-67
2022/03/12 05:37:08;;;;;;;14.80;9.32;;;0.80;44.60;;;-1.26;44.06;96287.66;4959630;28;20522;-66
2022/03/12 05:39:35;;;;;;;19.58;8.10;;;0.70;44.50;;;-1.29;43.94;96290.47;4956482;28;20035;-66
2022/03/12 05:42:03;;;;;;;13.35;6.40;;;0.70;44.60;;;-1.29;43.78;96293.06;4968747;28;20380;-66
2022/03/12 05:44:29;;;;;;;11.10;5.95;;;0.60;44.30;;;-1.28;43.61;96286.94;4969226;28;20041;-68
2022/03/12 05:46:55;;;;;;;9.85;5.65;;;0.70;44.50;;;-1.28;44.30;96299.84;4979177;28;20031;-67
2022/03/12 05:49:21;;;;;;;8.32;5.18;;;0.70;44.40;;;-1.29;43.94;96303.38;4965367;28;20031;-67
2022/03/12 05:51:47;;;;;;;9.70;6.03;;;0.70;44.50;;;-1.27;44.12;96306.66;4950084;28;20098;-68
2022/03/12 05:54:13;;;;;;;11.25;6.32;;;0.70;44.30;;;-1.28;43.95;96299.03;4952377;28;20095;-67
2022/03/12 05:56:40;;;;;;;8.70;5.30;;;0.70;44.40;;;-1.28;44.00;96299.84;4952812;28;20046;-66
2022/03/12 05:59:07;;;;;;;10.25;5.45;;;0.70;44.20;;;-1.26;44.08;96307.47;4952634;28;20118;-68
2022/03/12 06:01:33;;;;;;;10.15;5.85;;;0.80;43.60;;;-1.24;43.84;96314.19;4969038;28;20027;-67
2022/03/12 06:04:00;;;;;;;9.55;5.60;;;0.80;43.70;;;-1.20;44.09;96312.19;4952458;28;20053;-67
2022/03/12 06:06:29;;;;;;;10.07;5.70;;;0.90;43.70;;;-1.16;43.68;96311.03;4950884;28;20036;-67
2022/03/12 06:08:57;;;;;;;10.57;5.90;;;1.00;43.30;;;-1.10;43.84;96312.38;4956717;28;20486;-67
2022/03/12 06:11:25;;;;;;;26.85;15.15;;;1.00;43.20;;;-1.06;43.72;96324.09;4977632;28;20057;-67
2022/03/12 06:13:59;;;;;;;35.03;18.92;;;1.10;43.40;;;-1.02;44.32;96322.94;4984524;28;20487;-67
2022/03/12 06:16:25;;;;;;;12.10;7.38;;;1.10;43.60;;;-0.98;43.71;96321.78;4968416;28;20062;-68
2022/03/12 06:18:52;;;;;;;9.68;6.03;;;1.20;43.30;;;-0.95;44.01;96322.38;4984973;28;20038;-68
2022/03/12 06:21:18;;;;;;;9.98;6.18;;;1.30;43.20;;;-0.90;43.59;96328.97;4968282;28;21071;-68
2022/03/12 06:23:44;;;;;;;10.07;5.85;;;1.30;43.00;;;-0.87;44.29;96329.56;4984927;28;20045;-67
2022/03/12 06:26:15;;;;;;;9.38;5.85;;;1.40;42.90;;;-0.84;43.51;96334.50;4983257;28;20066;-68
2022/03/12 06:28:42;;;;;;;9.35;6.05;;;1.40;43.10;;;-0.80;44.01;96345.44;4969002;28;20123;-68
2022/03/12 06:31:10;;;;;;;10.20;5.75;;;1.40;43.10;;;-0.78;43.70;96341.78;4952045;28;20046;-68
2022/03/12 06:33:36;;;;;;;10.85;6.13;;;1.40;43.40;;;-0.76;44.13;96347.66;4953155;28;20039;-68
2022/03/12 06:36:02;;;;;;;27.38;15.65;;;1.50;43.30;;;-0.72;44.23;96349.06;4952649;28;20420;-67
2022/03/12 06:38:32;;;;;;;43.92;23.73;;;1.60;43.00;;;-0.67;44.00;96352.16;4968293;28;20035;-67
2022/03/12 06:40:58;;;;;;;22.95;11.82;;;1.60;43.00;;;-0.59;43.86;96358.50;4971375;28;20131;-67
2022/03/12 06:43:26;;;;;;;11.40;6.50;;;1.80;43.00;;;-0.52;44.15;96355.34;4916960;29;20045;-67
2022/03/12 06:45:53;;;;;;;9.38;5.72;;;1.90;42.40;;;-0.48;43.74;96354.19;4962690;28;20035;-68
2022/03/12 06:48:19;;;;;;;10.68;6.50;;;1.90;42.20;;;-0.41;43.74;96352.81;4984280;28;20101;-68
2022/03/12 06:50:45;;;;;;;13.02;6.70;;;2.10;41.30;;;-0.32;43.68;96356.44;4952570;28;20537;-69
2022/03/12 06:53:12;;;;;;;15.32;9.43;;;2.20;40.90;;;-0.26;43.56;96361.13;4951630;28;20053;-68
2022/03/12 06:55:37;;;;;;;30.65;18.77;;;2.30;40.50;;;-0.16;43.49;96359.53;4947962;28;20106;-68
2022/03/12 06:58:03;;;;;;;14.50;9.07;;;2.40;40.60;;;-0.05;43.38;96359.50;4927468;29;20095;-68
2022/03/12 07:00:31;;;;;;;12.80;7.03;;;2.60;40.70;;;0.08;43.34;96363.75;4965301;28;20023;-67
2022/03/12 07:02:57;;;;;;;11.15;6.18;;;2.70;39.70;;;0.19;43.11;96364.56;4956536;28;20029;-67
2022/03/12 07:05:23;;;;;;;11.98;6.57;;;2.90;39.20;;;0.31;42.58;96357.63;4935967;28;20464;-68
2022/03/12 07:07:49;;;;;;;10.30;6.95;;;3.10;39.00;;;0.44;42.64;96360.88;4952523;28;20117;-68
2022/03/12 07:10:15;;;;;;;12.15;6.40;;;3.20;38.70;;;0.58;42.34;96368.41;4967716;28;20027;-68
2022/03/12 07:12:43;;;;;;;9.65;5.72;;;3.40;38.00;;;0.72;42.55;96366.50;4968378;28;20075;-68
2022/03/12 07:15:09;;;;;;;8.93;5.82;;;3.60;38.00;;;0.87;42.61;96367.84;4967635;28;20101;-68
2022/03/12 07:17:35;;;;;;;17.58;9.88;;;3.80;37.20;;;1.00;41.52;96368.50;4952218;28;20031;-67
2022/03/12 07:20:01;;;;;;;19.20;11.02;;;4.00;36.60;;;1.14;42.19;96368.25;4965096;28;20066;-67
2022/03/12 07:22:27;;;;;;;11.05;6.20;;;4.10;36.40;;;1.30;41.70;96369.56;4933176;28;20132;-67
2022/03/12 07:24:53;;;;;;;10.05;6.25;;;4.30;35.90;;;1.44;41.02;96371.84;4934314;28;20031;-68
2022/03/12 07:27:19;;;;;;;12.32;6.22;;;4.50;35.50;;;1.56;40.88;96360.47;4938670;28;20102;-67
2022/03/12 07:29:44;;;;;;;10.20;5.95;;;4.70;35.30;;;1.73;41.20;96357.28;4949421;28;20031;-68
2022/03/12 07:32:11;;;;;;;11.77;6.10;;;4.90;35.20;;;1.87;41.10;96360.53;4953622;28;20102;-68
2022/03/12 07:34:36;;;;;;;11.85;5.93;;;5.20;34.70;;;2.02;40.71;96360.03;4971805;28;20035;-66
2022/03/12 07:37:02;;;;;;;9.93;6.40;;;5.50;34.30;;;2.17;40.59;96365.69;4968763;28;20038;-68
2022/03/12 07:39:28;;;;;;;17.77;10.85;;;5.70;33.90;;;2.33;40.87;96358.25;4936504;28;20032;-69
2022/03/12 07:41:54;;;;;;;53.83;30.25;;;6.00;33.70;;;2.54;40.80;96358.19;4951385;28;20042;-68
2022/03/12 07:44:19;;;;;;;15.63;9.07;;;6.40;34.10;;;2.78;40.32;96357.81;4985860;28;20082;-68
2022/03/12 07:46:45;;;;;;;8.93;5.72;;;6.80;33.80;;;3.02;40.31;96363.44;4970360;28;20063;-69
2022/03/12 07:49:11;;;;;;;10.43;6.10;;;7.20;32.60;;;3.24;39.92;96356.34;4967564;28;20415;-69
2022/03/12 07:51:37;;;;;;;10.18;6.50;;;7.60;31.40;;;3.50;39.46;96354.81;4983912;28;20027;-70
2022/03/12 07:54:06;;;;;;;9.55;6.30;;;8.00;30.20;;;3.73;38.75;96359.72;4939409;28;20034;-70
2022/03/12 07:56:34;;;;;;;10.15;6.10;;;8.30;29.40;;;3.99;38.71;96358.94;4970259;28;20101;-67
2022/03/12 07:59:00;;;;;;;8.20;6.25;;;8.70;28.80;;;4.24;38.33;96354.88;4937847;28;20027;-67
2022/03/12 08:01:26;;;;;;;7.97;5.82;;;9.00;28.80;;;4.48;37.61;96359.56;4959166;28;20030;-68
2022/03/12 08:03:52;;;;;;;10.68;6.40;;;9.40;28.00;;;4.74;37.62;96357.09;4971087;28;20495;-69
2022/03/12 08:06:19;;;;;;;8.60;6.20;;;9.70;28.10;;;4.98;37.02;96355.72;4967428;28;20080;-68
2022/03/12 08:08:44;;;;;;;8.20;5.90;;;10.00;26.90;;;5.22;36.80;96361.19;4954102;28;20039;-68
2022/03/12 08:11:25;;;;;;;10.70;6.53;;;10.40;26.50;;;5.45;36.00;96354.53;4970110;28;20034;-70
2022/03/12 08:14:02;;;;;;;9.13;6.57;;;10.60;26.30;;;5.74;36.43;96343.00;4973111;28;20027;-68
2022/03/12 08:16:29;;;;;;;9.90;6.80;;;11.20;26.40;;;6.03;35.72;96348.75;4972160;28;20099;-69
2022/03/12 08:18:54;;;;;;;12.68;7.45;;;11.50;25.40;;;6.30;35.27;96349.53;4954941;28;20046;-69
2022/03/12 08:21:20;;;;;;;7.20;5.93;;;11.70;25.60;;;6.59;36.06;96350.00;4957330;28;20060;-69
2022/03/12 08:23:47;;;;;;;9.93;6.70;;;12.20;25.20;;;6.87;35.40;96349.78;4967512;28;20118;-68
2022/03/12 08:26:13;;;;;;;9.30;6.20;;;12.50;24.70;;;7.14;34.45;96344.25;4945224;28;20057;-69
2022/03/12 08:28:39;;;;;;;8.95;6.68;;;12.90;24.20;;;7.38;34.10;96353.94;4939168;28;20062;-69
2022/03/12 08:31:05;;;;;;;18.30;12.02;;;13.10;23.80;;;7.64;33.81;96357.19;4959484;28;20122;-70
2022/03/12 08:33:32;;;;;;;12.05;6.50;;;13.40;23.70;;;7.94;33.75;96357.53;4951618;28;20431;-69
2022/03/12 08:35:58;;;;;;;9.15;6.90;;;13.60;23.50;;;8.21;33.60;96361.56;4935335;28;20122;-69
2022/03/12 08:38:25;;;;;;;9.60;6.55;;;13.80;23.10;;;8.43;33.07;96358.25;4951791;28;20042;-69
2022/03/12 08:40:51;;;;;;;10.77;7.28;;;14.20;23.00;;;8.71;33.06;96355.19;4960335;28;20038;-69
2022/03/12 08:43:17;;;;;;;10.50;6.80;;;14.50;22.50;;;9.00;32.39;96352.75;4953994;28;20069;-69
2022/03/12 08:45:43;;;;;;;10.10;7.40;;;14.80;22.50;;;9.28;32.28;96353.09;4965805;28;20518;-69
2022/03/12 08:48:09;;;;;;;10.43;6.70;;;14.90;22.00;;;9.46;32.09;96355.38;4967933;28;20030;-70
2022/03/12 08:50:35;;;;;;;8.00;6.65;;;15.00;21.80;;;9.75;31.33;96350.25;4970451;28;20035;-71
2022/03/12 08:53:01;;;;;;;11.85;7.13;;;15.40;22.20;;;10.04;30.66;96348.66;4985378;28;20060;-70
2022/03/12 08:55:27;;;;;;;10.90;6.93;;;15.60;21.80;;;10.26;31.31;96349.63;4963274;28;20047;-69
2022/03/12 08:57:53;;;;;;;9.43;7.10;;;15.60;21.20;;;10.46;30.95;96342.03;4971896;28;20414;-68
2022/03/12 09:00:19;;;;;;;9.50;7.07;;;15.80;21.30;;;10.70;29.99;96345.19;4967289;28;20785;-69
2022/03/12 09:02:45;;;;;;;9.82;6.70;;;16.10;21.70;;;10.99;30.16;96346.94;4946200;28;20027;-70
2022/03/12 09:05:12;;;;;;;11.00;7.60;;;16.50;20.70;;;11.23;29.40;96350.22;4942678;28;20030;-70
2022/03/12 09:07:38;;;;;;;9.32;7.32;;;16.60;20.90;;;11.47;29.52;96343.78;4986278;28;20027;-70
2022/03/12 09:10:05;;;;;;;11.10;6.97;;;16.80;20.70;;;11.75;29.59;96347.25;4950823;28;20027;-69
2022/03/12 09:12:31;;;;;;;10.32;7.45;;;17.20;20.40;;;12.00;29.08;96337.19;4968233;28;20391;-70
2022/03/12 09:14:57;;;;;;;10.77;7.47;;;17.40;20.30;;;12.34;29.53;96344.28;4951526;28;20121;-68
2022/03/12 09:17:22;;;;;;;10.45;7.13;;;17.60;20.60;;;12.54;28.18;96344.41;4968701;28;20493;-68
2022/03/12 09:19:48;;;;;;;10.88;7.65;;;17.70;19.90;;;12.80;28.15;96344.53;4970491;28;20254;-68
2022/03/12 09:22:14;;;;;;;9.10;7.53;;;18.00;20.20;;;13.00;28.05;96344.63;4985943;28;20066;-69
2022/03/12 09:24:40;;;;;;;12.52;7.65;;;18.10;19.60;;;13.17;28.16;96340.66;4969191;28;20122;-69
2022/03/12 09:27:06;;;;;;;11.32;7.60;;;18.30;19.90;;;13.29;27.64;96335.56;4984152;28;20514;-68
2022/03/12 09:29:32;;;;;;;10.98;7.55;;;18.30;19.70;;;13.46;27.83;96333.38;4945800;28;20027;-69
2022/03/12 09:31:59;;;;;;;12.88;7.32;;;18.50;19.50;;;13.70;27.70;96334.63;4984713;28;20034;-70
2022/03/12 09:34:25;;;;;;;10.25;7.85;;;18.60;19.90;;;13.96;26.93;96331.97;4952496;28;20041;-67
2022/03/12 09:36:51;;;;;;;10.38;7.63;;;18.90;19.20;;;14.19;26.37;96326.25;4965224;28;20063;-68
2022/03/12 09:39:17;;;;;;;11.82;7.93;;;19.30;19.00;;;14.49;26.70;96325.84;4934652;28;20090;-68
2022/03/12 09:41:43;;;;;;;10.07;7.85;;;19.70;19.50;;;14.74;27.36;96326.78;4983736;28;20190;-67
2022/03/12 09:44:09;;;;;;;9.77;7.68;;;20.20;19.70;;;14.89;27.36;96323.88;4968381;28;20507;-66
2022/03/12 09:46:34;;;;;;;10.85;7.93;;;20.50;18.30;;;15.08;25.57;96324.81;4951211;28;20125;-72
2022/03/12 09:49:00;;;;;;;9.45;7.28;;;21.00;18.10;;;15.26;25.66;96320.44;4964601;28;20058;-70
2022/03/12 09:51:29;;;;;;;10.35;8.25;;;21.50;17.70;;;15.42;25.74;96323.59;4985263;28;20114;-71
2022/03/12 09:53:55;;;;;;;11.52;7.55;;;22.00;16.90;;;15.69;26.11;96319.78;4969075;28;20039;-69
2022/03/12 09:56:21;;;;;;;12.57;7.80;;;22.60;16.80;;;15.92;25.61;96325.31;4967896;28;20038;-70
2022/03/12 09:58:47;;;;;;;11.15;7.57;;;23.10;16.00;;;16.17;24.59;96316.53;4952158;28;20054;-71
2022/03/12 10:01:13;;;;;;;10.75;7.90;;;23.80;15.80;;;16.59;25.64;96311.41;4964680;28;20037;-68
2022/03/12 10:03:41;;;;;;;9.73;7.57;;;24.60;15.20;;;17.02;25.20;96316.66;4960265;28;20106;-71
2022/03/12 10:06:07;;;;;;;14.60;8.25;;;25.50;14.50;;;17.38;24.67;96319.22;4961902;28;20050;-69
2022/03/12 10:08:33;;;;;;;11.70;7.88;;;26.00;14.20;;;18.08;24.97;96305.25;4955868;28;20035;-68
2022/03/12 10:10:59;;;;;;;10.93;8.57;;;26.90;13.70;;;18.76;25.40;96307.31;4962661;28;20038;-68
2022/03/12 10:13:25;;;;;;;10.73;8.23;;;28.00;13.40;;;19.49;24.35;96305.81;4969994;28;20121;-70
2022/03/12 10:15:51;;;;;;;11.10;7.97;;;29.00;12.60;;;20.17;23.20;96305.63;4930441;28;20043;-69
2022/03/12 10:18:17;;;;;;;14.38;8.50;;;29.80;12.20;;;20.73;23.81;96301.09;4964689;28;20059;-69
2022/03/12 10:20:43;;;;;;;9.45;8.35;;;30.70;11.50;;;21.01;23.03;96305.44;4961860;28;20066;-65